Time;durP1;ratioP1;P1;durP2;ratioP2;P2;SDS_P1;SDS_P2;PMS_P1;PMS_P2;Temp;Humidity;BMP_temperature;BMP_pressure;BME280_temperature;BME280_humidity;BME280_pressure;Samples;Min_cycle;Max_cycle;Signal;HPM_P1;HPM_P2
2022/05/22 00:02:21;;;;;;;8.30;4.83;;;15.50;1.00;;;;;;5009391;28;20185;-55
2022/05/22 00:04:47;;;;;;;5.43;4.43;;;15.40;1.00;;;;;;5004916;28;20195;-54
2022/05/22 00:09:38;;;;;;;5.70;4.90;;;15.50;1.00;;;;;;5006464;28;20475;-54
2022/05/22 00:12:07;;;;;;;8.37;5.53;;;15.40;1.00;;;;;;5007770;28;20201;-53
2022/05/22 00:14:33;;;;;;;6.87;5.40;;;15.40;1.00;;;;;;5003889;28;20311;-55
2022/05/22 00:16:59;;;;;;;8.97;5.57;;;15.30;1.00;;;;;;5001134;28;20551;-52
2022/05/22 00:19:31;;;;;;;7.43;4.50;;;15.30;1.00;;;;;;5009036;28;20472;-55
2022/05/22 00:21:57;;;;;;;5.30;4.80;;;15.30;1.00;;;;;;5005051;28;20471;-53
2022/05/22 00:24:25;;;;;;;7.30;4.90;;;15.30;1.00;;;;;;5000927;28;20455;-55
2022/05/22 00:26:51;;;;;;;7.83;5.63;;;15.30;1.00;;;;;;5003801;28;20519;-54
2022/05/22 00:29:18;;;;;;;8.83;4.70;;;15.20;1.00;;;;;;5007020;28;20531;-54
2022/05/22 00:31:44;;;;;;;13.90;6.10;;;15.10;1.00;;;;;;5007534;28;20451;-54
2022/05/22 00:34:10;;;;;;;7.53;5.50;;;15.10;1.00;;;;;;5004626;28;20487;-52
2022/05/22 00:37:27;;;;;;;8.23;5.50;;;15.10;1.00;;;;;;5002706;28;20480;-51
2022/05/22 00:39:52;;;;;;;7.73;5.27;;;15.10;1.00;;;;;;4965418;28;20488;-56
2022/05/22 00:42:21;;;;;;;7.50;5.70;;;15.10;1.00;;;;;;5003400;28;20444;-55
2022/05/22 00:44:47;;;;;;;7.97;5.30;;;15.10;1.00;;;;;;5005090;28;20201;-55
2022/05/22 00:50:22;;;;;;;9.00;6.17;;;15.30;1.00;;;;;;4989417;28;20452;-54
2022/05/22 00:52:55;;;;;;;10.00;6.23;;;15.20;1.00;;;;;;4982648;28;20443;-55
2022/05/22 00:55:26;;;;;;;8.10;5.60;;;15.20;1.00;;;;;;5004972;28;20456;-55
2022/05/22 00:57:56;;;;;;;15.40;6.47;;;15.10;1.00;;;;;;5002939;28;20448;-53
2022/05/22 01:00:26;;;;;;;9.43;5.57;;;15.30;1.00;;;;;;5005080;28;20990;-55
2022/05/22 01:05:41;;;;;;;6.10;4.73;;;15.40;1.00;;;;;;5001899;28;20949;-56
2022/05/22 01:08:07;;;;;;;6.80;5.90;;;15.50;1.00;;;;;;5002259;28;20448;-54
2022/05/22 01:10:43;;;;;;;8.70;5.57;;;15.50;1.00;;;;;;5002594;28;20932;-54
2022/05/22 01:13:11;;;;;;;10.03;5.37;;;15.50;1.00;;;;;;4999113;28;20420;-54
2022/05/22 01:15:36;;;;;;;7.70;5.00;;;15.50;1.00;;;;;;5004606;28;20484;-56
2022/05/22 01:18:02;;;;;;;10.80;6.07;;;15.40;1.00;;;;;;5005732;28;20456;-56
2022/05/22 01:20:27;;;;;;;7.10;5.97;;;15.40;1.00;;;;;;5006839;28;20218;-55
2022/05/22 01:22:53;;;;;;;10.90;6.60;;;15.40;1.00;;;;;;5005767;28;20220;-56
2022/05/22 01:25:18;;;;;;;6.97;6.27;;;15.30;1.00;;;;;;4994842;28;20194;-54
2022/05/22 01:28:05;;;;;;;10.30;6.70;;;15.40;1.00;;;;;;5002187;28;20208;-51
2022/05/22 01:30:31;;;;;;;7.60;6.80;;;15.40;1.00;;;;;;4986680;28;20203;-55
2022/05/22 01:32:56;;;;;;;13.60;7.03;;;15.40;1.00;;;;;;5003325;28;20451;-54
2022/05/22 01:35:25;;;;;;;7.60;6.70;;;15.10;1.00;;;;;;5001003;28;20201;-55
2022/05/22 01:37:51;;;;;;;10.50;6.70;;;15.40;1.00;;;;;;4999248;28;20567;-54
2022/05/22 01:40:18;;;;;;;12.00;7.80;;;15.30;1.00;;;;;;5002312;28;20468;-56
2022/05/22 01:42:53;;;;;;;13.97;7.30;;;15.30;1.00;;;;;;5006623;28;20538;-52
2022/05/22 01:45:22;;;;;;;7.27;6.57;;;15.30;1.00;;;;;;5004097;28;20464;-54
2022/05/22 01:50:38;;;;;;;9.40;7.33;;;15.40;1.00;;;;;;4997773;28;20444;-56
2022/05/22 01:53:15;;;;;;;11.00;6.60;;;15.40;1.00;;;;;;4997821;28;20607;-51
2022/05/22 01:55:41;;;;;;;14.77;7.13;;;15.40;1.00;;;;;;4997233;28;20448;-57
2022/05/22 01:58:07;;;;;;;10.57;6.50;;;15.50;1.00;;;;;;5002501;28;20460;-53
2022/05/22 02:00:34;;;;;;;12.73;6.80;;;15.30;1.00;;;;;;5007622;28;20491;-54
2022/05/22 02:03:00;;;;;;;9.17;6.27;;;15.30;1.00;;;;;;4997433;28;20448;-55
2022/05/22 02:05:25;;;;;;;7.50;6.23;;;15.30;1.00;;;;;;5006479;28;20551;-53
2022/05/22 02:10:36;;;;;;;7.47;5.60;;;15.30;1.00;;;;;;5004574;28;20251;-53
2022/05/22 02:13:03;;;;;;;7.70;5.57;;;15.20;1.00;;;;;;5000721;28;20506;-56
2022/05/22 02:15:28;;;;;;;10.67;5.50;;;15.20;1.00;;;;;;5004798;28;20563;-53
2022/05/22 02:18:14;;;;;;;6.33;5.73;;;15.20;1.00;;;;;;5004035;28;20555;-53
2022/05/22 02:20:40;;;;;;;8.40;6.27;;;15.20;1.00;;;;;;5003025;28;20204;-55
2022/05/22 02:23:46;;;;;;;7.07;6.37;;;15.20;1.00;;;;;;5003797;28;20452;-54
2022/05/22 02:26:11;;;;;;;5.90;5.30;;;15.10;1.00;;;;;;5006882;28;20617;-54
2022/05/22 02:28:39;;;;;;;10.27;5.70;;;15.20;1.00;;;;;;5003490;28;20578;-54
2022/05/22 02:31:04;;;;;;;8.93;6.07;;;15.20;1.00;;;;;;5007687;28;20231;-57
2022/05/22 02:33:38;;;;;;;8.20;6.13;;;15.30;1.00;;;;;;5008883;28;20455;-55
2022/05/22 02:36:06;;;;;;;9.67;6.80;;;15.30;1.00;;;;;;5002621;28;20201;-54
2022/05/22 02:39:01;;;;;;;8.40;6.60;;;15.20;1.00;;;;;;5002813;28;20471;-56
2022/05/22 02:41:26;;;;;;;8.60;6.80;;;15.20;1.00;;;;;;4998763;28;20423;-54
2022/05/22 02:43:53;;;;;;;9.90;6.70;;;15.30;1.00;;;;;;5007244;28;20494;-54
2022/05/22 02:46:20;;;;;;;10.63;6.20;;;15.20;1.00;;;;;;5004818;28;20225;-54
2022/05/22 02:48:46;;;;;;;8.07;6.47;;;15.10;1.00;;;;;;5006830;28;20775;-51
2022/05/22 02:51:15;;;;;;;6.97;6.30;;;15.10;1.00;;;;;;5009024;28;20478;-55
2022/05/22 02:53:51;;;;;;;11.07;6.80;;;15.10;1.00;;;;;;5005357;28;20219;-56
2022/05/22 02:56:22;;;;;;;13.20;7.07;;;15.10;1.00;;;;;;4999130;28;20460;-56
2022/05/22 02:58:47;;;;;;;9.90;6.17;;;15.20;1.00;;;;;;5004026;28;20476;-54
2022/05/22 03:01:13;;;;;;;11.73;7.57;;;15.40;1.00;;;;;;5001675;28;20515;-53
2022/05/22 03:03:38;;;;;;;8.47;6.70;;;15.30;1.00;;;;;;5001286;28;20202;-54
2022/05/22 03:08:49;;;;;;;10.30;7.30;;;15.20;1.00;;;;;;5009402;28;20188;-52
2022/05/22 03:11:15;;;;;;;8.47;6.17;;;15.30;1.00;;;;;;5005465;28;21063;-54
2022/05/22 03:14:01;;;;;;;7.00;5.60;;;15.20;1.00;;;;;;5007659;28;21461;-55
2022/05/22 03:16:26;;;;;;;9.63;6.00;;;15.10;1.00;;;;;;5000969;28;20903;-54
2022/05/22 03:18:55;;;;;;;7.63;6.83;;;15.10;1.00;;;;;;5007813;28;20460;-56
2022/05/22 03:21:21;;;;;;;8.00;7.20;;;15.00;1.00;;;;;;5009320;28;20264;-54
2022/05/22 03:24:27;;;;;;;7.27;6.57;;;15.10;1.00;;;;;;4993932;28;20484;-54
2022/05/22 03:30:33;;;;;;;8.53;6.80;;;14.90;1.00;;;;;;4873904;29;21013;-56
2022/05/22 03:36:25;;;;;;;7.33;6.23;;;14.90;1.00;;;;;;4986969;28;20189;-53
2022/05/22 03:38:51;;;;;;;9.80;6.93;;;14.90;1.00;;;;;;5005467;28;20471;-52
2022/05/22 03:41:16;;;;;;;8.00;6.40;;;14.80;1.00;;;;;;5003374;28;20208;-56
2022/05/22 03:44:22;;;;;;;10.57;7.00;;;14.90;1.00;;;;;;4999543;28;20202;-54
2022/05/22 03:50:14;;;;;;;10.63;6.70;;;14.90;1.00;;;;;;4853465;29;20470;-56
2022/05/22 03:56:14;;;;;;;8.87;6.80;;;14.90;1.00;;;;;;4877549;28;20846;-54
2022/05/22 04:01:26;;;;;;;11.67;7.50;;;15.00;1.00;;;;;;5000258;28;20458;-56
2022/05/22 04:06:40;;;;;;;9.10;7.00;;;14.90;1.00;;;;;;4992457;28;20457;-55
2022/05/22 04:09:29;;;;;;;9.80;6.83;;;14.90;1.00;;;;;;5001508;28;20459;-57
2022/05/22 04:15:35;;;;;;;9.37;6.17;;;14.90;1.00;;;;;;4918213;28;20461;-55
2022/05/22 04:21:27;;;;;;;10.80;7.20;;;14.90;1.00;;;;;;4983646;28;20203;-54
2022/05/22 04:30:35;;;;;;;11.40;6.97;;;15.00;1.00;;;;;;4903639;29;21055;-54
2022/05/22 04:36:27;;;;;;;8.20;7.40;;;14.90;1.00;;;;;;4951972;28;20209;-54
2022/05/22 04:39:33;;;;;;;7.77;7.00;;;14.90;1.00;;;;;;5006458;28;20472;-54
2022/05/22 04:45:34;;;;;;;9.20;7.57;;;15.00;1.00;;;;;;4868374;29;20475;-55
2022/05/22 04:47:59;;;;;;;9.13;6.73;;;15.10;1.00;;;;;;5004693;28;20423;-53
2022/05/22 04:50:26;;;;;;;10.30;6.60;;;15.10;1.00;;;;;;4995514;28;20551;-55
2022/05/22 04:52:52;;;;;;;8.87;7.70;;;15.10;1.00;;;;;;5001074;28;20248;-56
2022/05/22 04:55:18;;;;;;;8.90;7.03;;;15.20;1.00;;;;;;4995733;28;20447;-53
2022/05/22 04:57:44;;;;;;;8.17;7.33;;;15.40;1.00;;;;;;4991191;28;20476;-56
2022/05/22 05:00:11;;;;;;;9.70;7.43;;;15.40;1.00;;;;;;4988165;28;20829;-56
2022/05/22 05:02:38;;;;;;;8.23;7.40;;;15.30;1.00;;;;;;4990716;28;20200;-56
2022/05/22 05:05:05;;;;;;;11.53;8.20;;;15.40;1.00;;;;;;4993909;28;20451;-55
2022/05/22 05:07:31;;;;;;;8.57;7.37;;;15.40;1.00;;;;;;5003203;28;20433;-54
2022/05/22 05:09:57;;;;;;;10.20;7.17;;;15.30;1.00;;;;;;5003113;28;21040;-54
2022/05/22 05:12:23;;;;;;;7.63;6.43;;;15.40;1.00;;;;;;5008030;28;20510;-52
2022/05/22 05:14:49;;;;;;;9.20;7.53;;;15.70;1.00;;;;;;5005264;28;20574;-55
2022/05/22 05:17:17;;;;;;;10.73;7.90;;;15.70;1.00;;;;;;5008765;28;20511;-54
2022/05/22 05:19:44;;;;;;;9.10;6.73;;;16.00;1.00;;;;;;5006317;28;20476;-54
2022/05/22 05:22:10;;;;;;;9.13;6.33;;;16.30;1.00;;;;;;5007090;28;20464;-53
2022/05/22 05:24:36;;;;;;;7.93;6.13;;;16.70;1.00;;;;;;5006927;28;20473;-55
2022/05/22 05:27:02;;;;;;;7.80;7.00;;;16.70;1.00;;;;;;5000748;28;20725;-54
2022/05/22 05:29:27;;;;;;;11.00;6.93;;;16.40;1.00;;;;;;4999923;28;21038;-54
2022/05/22 05:31:53;;;;;;;16.97;7.40;;;16.30;1.00;;;;;;5005300;28;20190;-53
2022/05/22 05:34:19;;;;;;;11.30;7.63;;;16.40;1.00;;;;;;5006103;28;20221;-55
2022/05/22 05:36:45;;;;;;;7.13;6.43;;;18.10;1.00;;;;;;5007116;28;20209;-54
2022/05/22 05:39:12;;;;;;;9.60;7.10;;;16.40;1.00;;;;;;5004456;28;20232;-54
2022/05/22 05:41:38;;;;;;;8.60;7.40;;;16.40;1.00;;;;;;5003020;28;20448;-56
2022/05/22 05:44:06;;;;;;;11.87;7.40;;;16.30;1.00;;;;;;5004737;28;20823;-54
2022/05/22 05:46:44;;;;;;;9.50;6.80;;;16.20;1.00;;;;;;5003425;28;20268;-54
2022/05/22 05:49:12;;;;;;;8.30;6.93;;;16.40;1.00;;;;;;5004840;28;20463;-56
2022/05/22 05:51:37;;;;;;;7.20;6.43;;;16.50;1.00;;;;;;5000033;28;20463;-54
2022/05/22 05:54:04;;;;;;;11.40;7.20;;;16.60;1.00;;;;;;5000288;28;20517;-52
2022/05/22 05:56:30;;;;;;;10.10;6.90;;;16.80;1.00;;;;;;5003703;28;20598;-56
2022/05/22 05:58:56;;;;;;;12.83;6.43;;;17.00;1.00;;;;;;5011721;28;20921;-55
2022/05/22 06:01:24;;;;;;;9.37;6.43;;;17.10;1.00;;;;;;5007420;28;20644;-54
2022/05/22 06:03:53;;;;;;;10.43;7.20;;;17.10;1.00;;;;;;5001178;28;20448;-57
2022/05/22 06:06:19;;;;;;;8.33;6.20;;;17.00;1.00;;;;;;5003136;28;20824;-55
2022/05/22 06:08:44;;;;;;;8.30;6.00;;;17.10;1.00;;;;;;5009353;28;20576;-55
2022/05/22 06:11:10;;;;;;;8.03;6.50;;;17.10;1.00;;;;;;5004172;28;20445;-54
2022/05/22 06:13:36;;;;;;;7.93;6.53;;;17.30;1.00;;;;;;5003474;28;20201;-55
2022/05/22 06:16:05;;;;;;;10.90;6.50;;;17.60;1.00;;;;;;5001286;28;20345;-55
2022/05/22 06:18:31;;;;;;;8.30;5.83;;;17.60;1.00;;;;;;5008766;28;20874;-54
2022/05/22 06:20:56;;;;;;;9.03;5.70;;;17.60;1.00;;;;;;5003641;28;20535;-54
2022/05/22 06:23:22;;;;;;;8.30;6.40;;;17.70;1.00;;;;;;5009740;28;20197;-54
2022/05/22 06:25:48;;;;;;;11.03;6.70;;;17.50;1.00;;;;;;5004160;28;20702;-56
2022/05/22 06:28:15;;;;;;;8.83;5.83;;;17.70;1.00;;;;;;5008699;28;20202;-54
2022/05/22 06:30:41;;;;;;;7.33;6.63;;;18.00;1.00;;;;;;5006853;28;20525;-55
2022/05/22 06:33:14;;;;;;;9.20;5.60;;;18.00;1.00;;;;;;5003690;28;20482;-56
2022/05/22 06:35:41;;;;;;;7.80;5.90;;;18.20;1.00;;;;;;5005073;28;20452;-56
2022/05/22 06:38:07;;;;;;;8.17;5.60;;;18.20;1.00;;;;;;5010030;28;20456;-55
2022/05/22 06:40:33;;;;;;;9.60;5.20;;;18.20;1.00;;;;;;5008535;28;20472;-53
2022/05/22 06:43:01;;;;;;;6.30;4.67;;;18.30;1.00;;;;;;5008057;28;20511;-57
2022/05/22 06:45:28;;;;;;;8.00;4.80;;;18.40;1.00;;;;;;5006389;28;20276;-53
2022/05/22 06:47:54;;;;;;;8.17;5.23;;;18.20;1.00;;;;;;5002917;28;20459;-56
2022/05/22 06:50:24;;;;;;;6.83;4.90;;;18.30;1.00;;;;;;5005886;28;20468;-54
2022/05/22 06:52:50;;;;;;;7.17;4.97;;;18.20;1.00;;;;;;5006640;28;20659;-52
2022/05/22 06:55:15;;;;;;;5.30;4.20;;;18.30;1.00;;;;;;5004066;28;20485;-53
2022/05/22 06:57:42;;;;;;;9.47;5.17;;;18.30;1.00;;;;;;5003276;28;20673;-55
2022/05/22 07:00:16;;;;;;;8.23;5.03;;;18.60;1.00;;;;;;5006779;28;20652;-56
2022/05/22 07:02:42;;;;;;;9.97;5.43;;;18.70;1.00;;;;;;5004628;28;20459;-55
2022/05/22 07:05:10;;;;;;;7.00;4.93;;;18.70;1.00;;;;;;5006018;28;20545;-54
2022/05/22 07:07:36;;;;;;;7.27;5.00;;;18.70;1.00;;;;;;5003689;28;20917;-55
2022/05/22 07:10:02;;;;;;;6.47;4.60;;;18.50;1.00;;;;;;5007279;28;20476;-54
2022/05/22 07:12:27;;;;;;;7.87;5.20;;;18.50;1.00;;;;;;5001275;28;20314;-55
2022/05/22 07:14:55;;;;;;;7.13;4.77;;;18.60;1.00;;;;;;5005155;28;20570;-54
2022/05/22 07:17:24;;;;;;;7.63;5.57;;;18.80;1.00;;;;;;5006388;28;20209;-56
2022/05/22 07:19:51;;;;;;;10.60;5.80;;;18.90;1.00;;;;;;4999307;28;20551;-55
2022/05/22 07:22:16;;;;;;;9.63;4.97;;;18.90;1.00;;;;;;5005649;28;20464;-53
2022/05/22 07:24:42;;;;;;;8.10;5.60;;;18.90;1.00;;;;;;5004379;28;20448;-55
2022/05/22 07:27:08;;;;;;;5.33;4.50;;;19.00;1.00;;;;;;4983562;28;20202;-53
2022/05/22 07:29:33;;;;;;;6.10;4.93;;;18.90;1.00;;;;;;5009565;28;20607;-56
2022/05/22 07:31:59;;;;;;;6.20;5.10;;;18.90;1.00;;;;;;5005899;28;20658;-54
2022/05/22 07:34:26;;;;;;;7.17;4.37;;;18.90;1.00;;;;;;5005559;28;20713;-54
2022/05/22 07:37:00;;;;;;;8.43;4.00;;;19.00;1.00;;;;;;5004030;28;20528;-54
2022/05/22 07:39:26;;;;;;;4.77;3.93;;;19.60;1.00;;;;;;4997665;28;20482;-57
2022/05/22 07:41:52;;;;;;;6.47;4.70;;;19.60;1.00;;;;;;5004006;28;20501;-53
2022/05/22 07:44:18;;;;;;;6.40;4.13;;;19.70;1.00;;;;;;4985783;28;20456;-54
2022/05/22 07:46:43;;;;;;;6.30;3.80;;;19.60;1.00;;;;;;5003320;28;20842;-54
2022/05/22 07:50:16;;;;;;;5.83;4.53;;;19.70;1.00;;;;;;5004711;28;20225;-54
2022/05/22 07:51:55;;;;;;;7.63;4.57;;;19.90;1.00;;;;;;5007640;28;20189;-54
2022/05/22 07:54:21;;;;;;;6.57;4.00;;;20.00;1.00;;;;;;4998873;28;20801;-54
2022/05/22 07:56:46;;;;;;;6.43;3.20;;;19.60;1.00;;;;;;5000604;28;20190;-56
2022/05/22 07:59:12;;;;;;;9.40;3.57;;;19.60;1.00;;;;;;4994334;28;20241;-54
2022/05/22 08:01:37;;;;;;;4.80;4.30;;;19.80;1.00;;;;;;4996116;28;20210;-55
2022/05/22 08:04:03;;;;;;;6.83;3.20;;;20.20;1.00;;;;;;4995122;28;20190;-54
2022/05/22 08:06:29;;;;;;;4.23;3.10;;;20.30;1.00;;;;;;4999395;28;20529;-55
2022/05/22 08:08:54;;;;;;;9.50;3.20;;;20.40;1.00;;;;;;4999540;28;20224;-54
2022/05/22 08:11:20;;;;;;;4.40;3.70;;;20.70;1.00;;;;;;5008389;28;20325;-56
2022/05/22 08:13:45;;;;;;;5.23;3.13;;;20.20;1.00;;;;;;5008702;28;20314;-55
2022/05/22 08:16:11;;;;;;;4.63;3.30;;;20.10;1.00;;;;;;4999988;28;20229;-54
2022/05/22 08:18:37;;;;;;;3.43;3.13;;;20.10;1.00;;;;;;5002192;28;20205;-53
2022/05/22 08:21:06;;;;;;;8.67;3.53;;;20.10;1.00;;;;;;5000359;28;20190;-57
2022/05/22 08:23:32;;;;;;;7.10;3.50;;;20.30;1.00;;;;;;5004795;28;20197;-54
2022/05/22 08:25:58;;;;;;;7.90;2.83;;;;;;;;;;5004444;28;20502;-54
2022/05/22 08:28:24;;;;;;;3.20;2.83;;;20.10;1.00;;;;;;5007527;28;20189;-53
2022/05/22 08:30:49;;;;;;;7.33;2.40;;;20.20;1.00;;;;;;4994338;28;20459;-54
2022/05/22 08:33:15;;;;;;;5.13;2.57;;;20.40;1.00;;;;;;5005123;28;20221;-53
2022/05/22 08:35:43;;;;;;;4.40;2.80;;;20.40;1.00;;;;;;4999014;28;20245;-54
2022/05/22 08:38:10;;;;;;;3.90;2.23;;;20.30;1.00;;;;;;5001713;28;20474;-53
2022/05/22 08:40:40;;;;;;;3.37;2.33;;;20.40;1.00;;;;;;5001782;28;20464;-53
2022/05/22 08:43:14;;;;;;;6.33;2.60;;;20.30;1.00;;;;;;4999109;28;20426;-54
2022/05/22 08:45:56;;;;;;;4.87;2.87;;;20.30;1.00;;;;;;4997716;28;20441;-54
2022/05/22 08:48:28;;;;;;;5.40;3.00;;;19.80;1.00;;;;;;4996378;28;20463;-54
2022/05/22 08:50:57;;;;;;;5.77;3.07;;;19.70;1.00;;;;;;5005324;28;20518;-56
2022/05/22 08:53:34;;;;;;;4.80;3.90;;;19.50;1.00;;;;;;4999121;28;20448;-54
2022/05/22 08:58:58;;;;;;;4.50;2.63;;;19.90;1.00;;;;;;5004903;28;20500;-56
2022/05/22 09:01:33;;;;;;;4.30;2.07;;;20.10;1.00;;;;;;4998025;28;20444;-56
2022/05/22 09:04:08;;;;;;;4.30;2.30;;;21.00;1.00;;;;;;5001908;28;20467;-55
2022/05/22 09:06:42;;;;;;;4.50;2.60;;;20.90;1.00;;;;;;4996773;28;20423;-53
2022/05/22 09:09:07;;;;;;;3.67;2.23;;;20.50;1.00;;;;;;4998603;28;20449;-54
2022/05/22 09:11:47;;;;;;;4.50;2.57;;;20.70;1.00;;;;;;4998991;28;20449;-54
2022/05/22 09:14:24;;;;;;;5.33;1.80;;;20.60;1.00;;;;;;5000968;28;20809;-55
2022/05/22 09:17:06;;;;;;;3.80;2.33;;;20.80;1.00;;;;;;5002294;28;20452;-52
2022/05/22 09:19:44;;;;;;;2.80;2.07;;;21.30;1.00;;;;;;5003035;28;20472;-55
2022/05/22 09:22:46;;;;;;;3.83;2.33;;;21.50;1.00;;;;;;4997091;28;20510;-55
2022/05/22 09:25:34;;;;;;;5.33;2.27;;;21.40;1.00;;;;;;4957109;28;20945;-54
2022/05/22 09:28:13;;;;;;;2.47;1.93;;;21.20;1.00;;;;;;4997368;28;20526;-54
2022/05/22 09:31:40;;;;;;;3.40;2.40;;;20.70;1.00;;;;;;4981942;28;20518;-53
2022/05/22 09:34:24;;;;;;;4.63;3.13;;;20.40;1.00;;;;;;4932606;29;21197;-54
2022/05/22 09:37:05;;;;;;;5.00;2.80;;;20.50;1.00;;;;;;4935031;28;20463;-55
2022/05/22 09:39:53;;;;;;;6.10;2.43;;;20.80;1.00;;;;;;4972894;28;20484;-55
2022/05/22 09:42:21;;;;;;;4.80;2.47;;;20.90;1.00;;;;;;5002229;28;20966;-55
2022/05/22 09:45:02;;;;;;;5.33;2.50;;;21.00;1.00;;;;;;4997484;28;20531;-55
2022/05/22 09:47:53;;;;;;;4.30;2.50;;;21.30;1.00;;;;;;5000300;28;21001;-52
2022/05/22 09:50:28;;;;;;;4.13;2.60;;;21.60;1.00;;;;;;4998232;28;20451;-56
2022/05/22 09:53:27;;;;;;;5.10;2.67;;;21.40;1.00;;;;;;4996671;28;20454;-56
2022/05/22 09:56:17;;;;;;;4.50;2.13;;;21.30;1.00;;;;;;4997334;28;20456;-53
2022/05/22 09:59:08;;;;;;;6.00;2.00;;;21.00;1.00;;;;;;5003847;28;20851;-54
2022/05/22 10:01:40;;;;;;;3.30;2.20;;;20.90;1.00;;;;;;4998557;28;20467;-55
2022/05/22 10:04:29;;;;;;;3.50;2.07;;;20.80;1.00;;;;;;4998330;28;20917;-55
2022/05/22 10:07:07;;;;;;;4.23;1.90;;;20.80;1.00;;;;;;5000011;28;20468;-54
2022/05/22 10:09:47;;;;;;;2.93;2.43;;;20.90;1.00;;;;;;4995847;28;20418;-56
2022/05/22 10:12:24;;;;;;;3.90;2.03;;;21.10;1.00;;;;;;4999245;28;20461;-55
2022/05/22 10:15:01;;;;;;;4.97;1.73;;;21.10;1.00;;;;;;5002222;28;20816;-55
2022/05/22 10:17:35;;;;;;;3.73;1.80;;;21.30;1.00;;;;;;5003864;28;20566;-56
2022/05/22 10:20:19;;;;;;;6.60;2.13;;;21.30;1.00;;;;;;5001651;28;20446;-55
2022/05/22 10:23:12;;;;;;;5.73;1.90;;;21.20;1.00;;;;;;4999197;28;20513;-56
2022/05/22 10:25:45;;;;;;;3.50;2.20;;;21.40;1.00;;;;;;4999622;28;20452;-56
2022/05/22 10:28:13;;;;;;;2.90;1.83;;;22.00;1.00;;;;;;4999115;28;20411;-56
2022/05/22 10:30:42;;;;;;;3.60;2.03;;;21.80;1.00;;;;;;4996997;28;20441;-55
2022/05/22 10:33:14;;;;;;;4.40;2.00;;;21.60;1.00;;;;;;4998598;28;20997;-55
2022/05/22 10:35:47;;;;;;;2.90;1.60;;;21.30;1.00;;;;;;5002840;28;21019;-57
2022/05/22 10:38:28;;;;;;;4.87;2.30;;;21.30;1.00;;;;;;4978643;28;20448;-56
2022/05/22 10:43:46;;;;;;;4.40;2.17;;;21.80;1.00;;;;;;5004779;28;20518;-55
2022/05/22 10:46:12;;;;;;;2.10;1.70;;;22.00;1.00;;;;;;5008045;28;20942;-55
2022/05/22 10:48:50;;;;;;;2.97;1.90;;;21.90;1.00;;;;;;5002407;28;20444;-55
2022/05/22 10:51:27;;;;;;;3.87;2.33;;;21.90;1.00;;;;;;5006157;28;20440;-56
2022/05/22 10:54:01;;;;;;;3.67;1.80;;;21.70;1.00;;;;;;5005857;28;20447;-54
2022/05/22 10:56:30;;;;;;;2.70;1.80;;;21.70;1.00;;;;;;4996968;28;20450;-56
2022/05/22 10:59:03;;;;;;;3.53;2.27;;;21.60;1.00;;;;;;5002131;28;20419;-57
2022/05/22 11:01:39;;;;;;;3.33;1.97;;;21.40;1.00;;;;;;5001656;28;20424;-56
2022/05/22 11:04:12;;;;;;;3.27;2.10;;;21.40;1.00;;;;;;5003697;28;21485;-55
2022/05/22 11:06:51;;;;;;;2.93;1.93;;;21.60;1.00;;;;;;4999461;28;20953;-56
2022/05/22 11:09:24;;;;;;;4.00;1.73;;;21.90;1.00;;;;;;5006547;28;20435;-57
2022/05/22 11:11:50;;;;;;;4.57;2.27;;;22.00;1.00;;;;;;5000134;28;20449;-54
2022/05/22 11:14:22;;;;;;;3.67;2.30;;;22.00;1.00;;;;;;5002826;28;20439;-56
2022/05/22 11:16:47;;;;;;;5.67;2.17;;;21.60;1.00;;;;;;4997806;28;20201;-56
2022/05/22 11:19:25;;;;;;;4.30;2.07;;;21.60;1.00;;;;;;5007159;28;20487;-56
2022/05/22 11:22:09;;;;;;;5.23;1.97;;;21.70;1.00;;;;;;5002852;28;20225;-56
2022/05/22 11:24:34;;;;;;;3.90;2.00;;;22.30;1.00;;;;;;5003396;28;20535;-55
2022/05/22 11:27:15;;;;;;;6.10;2.10;;;22.30;1.00;;;;;;4998493;28;20536;-55
2022/05/22 11:29:53;;;;;;;4.80;2.50;;;22.80;1.00;;;;;;5001395;28;20217;-56
2022/05/22 11:32:31;;;;;;;3.83;2.03;;;23.70;1.00;;;;;;5007729;28;20453;-56
2022/05/22 11:35:09;;;;;;;5.33;1.97;;;22.70;1.00;;;;;;5002383;28;20603;-56
2022/05/22 11:37:44;;;;;;;2.77;2.30;;;22.10;1.00;;;;;;4998648;28;20431;-56
2022/05/22 11:40:09;;;;;;;3.77;1.60;;;22.90;1.00;;;;;;5000130;28;21162;-56
2022/05/22 11:42:37;;;;;;;3.10;1.73;;;23.10;1.00;;;;;;5002138;28;20502;-55
2022/05/22 11:45:24;;;;;;;5.83;1.90;;;23.20;1.00;;;;;;4997300;28;20313;-57
2022/05/22 11:48:27;;;;;;;4.07;2.03;;;22.70;1.00;;;;;;4999224;28;20803;-57
2022/05/22 11:51:07;;;;;;;5.23;1.50;;;22.30;1.00;;;;;;4992126;28;20453;-57
2022/05/22 11:54:02;;;;;;;3.50;2.60;;;22.70;1.00;;;;;;4996142;28;20403;-56
2022/05/22 11:56:32;;;;;;;2.90;1.77;;;23.00;1.00;;;;;;4992342;28;20460;-57
2022/05/22 11:59:21;;;;;;;3.90;1.90;;;23.10;1.00;;;;;;5006259;28;20466;-56
2022/05/22 12:01:52;;;;;;;5.13;2.07;;;23.10;1.00;;;;;;5005059;28;20462;-55
2022/05/22 12:05:09;;;;;;;4.20;2.03;;;23.00;1.00;;;;;;4993689;28;20437;-55
2022/05/22 12:07:44;;;;;;;8.30;2.27;;;22.80;1.00;;;;;;4927783;29;20535;-57
2022/05/22 12:10:12;;;;;;;3.40;1.90;;;22.40;1.00;;;;;;4994362;28;20430;-56
2022/05/22 12:12:52;;;;;;;4.47;2.53;;;22.40;1.00;;;;;;5001987;28;20528;-55
2022/05/22 12:15:34;;;;;;;4.00;1.87;;;22.30;1.00;;;;;;4999855;28;20480;-57
2022/05/22 12:18:45;;;;;;;2.97;1.67;;;22.60;1.00;;;;;;4996660;28;20472;-56
2022/05/22 12:21:37;;;;;;;4.47;2.80;;;22.70;1.00;;;;;;4956021;28;20492;-56
2022/05/22 12:24:12;;;;;;;4.50;2.00;;;22.70;1.00;;;;;;4958998;28;20450;-55
2022/05/22 12:26:39;;;;;;;4.00;1.70;;;22.80;1.00;;;;;;4994326;28;20418;-56
2022/05/22 12:29:05;;;;;;;3.80;1.80;;;22.90;1.00;;;;;;5010310;28;20444;-57
2022/05/22 12:31:38;;;;;;;4.50;1.73;;;22.80;1.00;;;;;;4993374;28;20793;-56
2022/05/22 12:34:09;;;;;;;4.00;2.00;;;22.50;1.00;;;;;;4999062;28;20190;-55
2022/05/22 12:36:35;;;;;;;3.73;1.63;;;22.60;1.00;;;;;;4993075;28;20484;-56
2022/05/22 12:39:05;;;;;;;3.53;2.20;;;22.90;1.00;;;;;;4996433;28;20436;-56
2022/05/22 12:41:35;;;;;;;2.10;1.47;;;22.50;1.00;;;;;;4991931;28;20456;-56
2022/05/22 12:44:03;;;;;;;3.20;1.43;;;22.90;1.00;;;;;;5000584;28;20429;-55
2022/05/22 12:46:29;;;;;;;2.70;1.67;;;22.80;1.00;;;;;;5009634;28;20436;-56
2022/05/22 12:49:05;;;;;;;3.00;1.70;;;22.70;1.00;;;;;;4997278;28;20445;-56
2022/05/22 12:51:34;;;;;;;3.90;1.50;;;22.50;1.00;;;;;;4992093;28;20445;-55
2022/05/22 12:54:22;;;;;;;2.77;1.43;;;22.40;1.00;;;;;;4992146;28;20451;-55
2022/05/22 12:56:48;;;;;;;3.57;1.57;;;22.50;1.00;;;;;;4992376;28;20419;-56
2022/05/22 12:59:27;;;;;;;2.43;1.60;;;22.80;1.00;;;;;;4992055;28;20457;-55
2022/05/22 13:01:55;;;;;;;3.67;1.57;;;22.70;1.00;;;;;;4991527;28;20766;-55
2022/05/22 13:04:34;;;;;;;2.83;1.50;;;22.80;1.00;;;;;;4991590;28;20492;-56
2022/05/22 13:07:09;;;;;;;2.57;1.83;;;23.00;1.00;;;;;;5003115;28;20961;-57
2022/05/22 13:09:45;;;;;;;5.13;1.77;;;22.90;1.00;;;;;;5000970;28;20440;-56
2022/05/22 13:12:15;;;;;;;3.07;1.63;;;22.70;1.00;;;;;;4997284;28;20511;-55
2022/05/22 13:14:44;;;;;;;2.40;1.40;;;22.40;1.00;;;;;;4996017;28;21036;-55
2022/05/22 13:17:11;;;;;;;4.10;1.47;;;22.50;1.00;;;;;;5004176;28;20445;-55
2022/05/22 13:19:50;;;;;;;3.10;1.33;;;22.90;1.00;;;;;;5001968;28;20452;-56
2022/05/22 13:22:38;;;;;;;4.40;2.03;;;23.10;1.00;;;;;;5001601;28;20460;-56
2022/05/22 13:25:24;;;;;;;3.20;1.73;;;23.20;1.00;;;;;;4997072;28;20419;-55
2022/05/22 13:27:49;;;;;;;5.73;1.70;;;23.00;1.00;;;;;;5005990;28;20480;-57
2022/05/22 13:30:20;;;;;;;2.60;1.10;;;23.10;1.00;;;;;;4990782;28;20477;-57
2022/05/22 13:32:53;;;;;;;1.43;1.20;;;22.90;1.00;;;;;;4997418;28;20193;-56
2022/05/22 13:35:29;;;;;;;3.43;1.50;;;22.90;1.00;;;;;;5001457;28;20447;-56
2022/05/22 13:37:55;;;;;;;3.80;1.50;;;22.90;1.00;;;;;;4996370;28;20455;-55
2022/05/22 13:40:54;;;;;;;4.30;1.63;;;23.10;1.00;;;;;;4997732;28;20512;-55
2022/05/22 13:43:40;;;;;;;2.80;1.67;;;23.10;1.00;;;;;;4992821;28;20943;-56
2022/05/22 13:46:40;;;;;;;2.67;1.30;;;23.20;1.00;;;;;;4994333;28;20448;-56
2022/05/22 13:49:39;;;;;;;2.97;1.60;;;23.30;1.00;;;;;;4990539;28;20452;-56
2022/05/22 13:52:39;;;;;;;3.13;1.57;;;23.30;1.00;;;;;;4976640;28;20527;-55
2022/05/22 13:55:16;;;;;;;3.23;1.27;;;23.00;1.00;;;;;;5000708;28;20944;-55
2022/05/22 13:57:55;;;;;;;2.70;1.30;;;22.80;1.00;;;;;;5000379;28;20456;-56
2022/05/22 14:00:23;;;;;;;2.37;1.30;;;22.90;1.00;;;;;;5004006;28;20463;-55
2022/05/22 14:03:00;;;;;;;4.90;1.67;;;23.30;1.00;;;;;;4993115;28;20438;-55
2022/05/22 14:05:38;;;;;;;1.73;1.33;;;23.40;1.00;;;;;;5003181;28;20532;-56
2022/05/22 14:08:10;;;;;;;3.37;1.57;;;23.60;1.00;;;;;;4993005;28;20444;-55
2022/05/22 14:10:38;;;;;;;3.23;1.40;;;24.10;1.00;;;;;;4994661;28;20476;-55
2022/05/22 14:13:21;;;;;;;4.70;1.63;;;25.10;1.00;;;;;;5008535;28;20452;-55
2022/05/22 14:15:56;;;;;;;2.33;1.87;;;26.40;1.00;;;;;;5002348;28;20843;-55
2022/05/22 14:18:25;;;;;;;4.07;1.37;;;27.10;1.00;;;;;;5001945;28;21041;-56
2022/05/22 14:20:55;;;;;;;2.03;1.20;;;26.20;1.00;;;;;;4993890;28;20431;-57
2022/05/22 14:23:29;;;;;;;2.17;1.40;;;24.90;1.00;;;;;;4995872;28;20430;-55
2022/05/22 14:26:18;;;;;;;2.50;1.60;;;24.70;1.00;;;;;;4994424;28;20451;-55